createdAt,value
2019-03-06T00:01:52.385Z,8.53
2019-03-06T00:07:11.025Z,9.73
2019-03-06T00:12:30.175Z,7.63
2019-03-06T00:17:48.810Z,6.17
2019-03-06T00:23:08.383Z,9.97
2019-03-06T00:28:27.007Z,9.17
2019-03-06T00:33:45.913Z,10.27
2019-03-06T00:39:07.365Z,6.03
2019-03-06T00:44:26.073Z,8.73
2019-03-06T00:49:44.623Z,10.40
2019-03-06T00:55:03.343Z,9.17
2019-03-06T01:00:24.602Z,8.13
2019-03-06T01:05:43.217Z,9.80
2019-03-06T01:11:01.772Z,8.77
2019-03-06T01:16:20.385Z,12.63
2019-03-06T01:21:39.012Z,12.57
2019-03-06T01:26:57.575Z,13.03
2019-03-06T01:32:16.529Z,12.63
2019-03-06T01:37:36.900Z,17.43
2019-03-06T01:42:59.869Z,13.90
2019-03-06T01:48:18.482Z,15.48
2019-03-06T01:53:37.132Z,18.57
2019-03-06T01:58:55.798Z,20.25
2019-03-06T02:04:14.763Z,25.03
2019-03-06T02:09:34.091Z,22.50
2019-03-06T02:14:52.637Z,25.87
2019-03-06T02:20:16.129Z,26.15
2019-03-06T02:25:34.746Z,20.23
2019-03-06T02:30:53.363Z,20.33
2019-03-06T02:36:12.250Z,23.93
2019-03-06T02:41:30.857Z,20.70
2019-03-06T02:46:49.747Z,18.70
2019-03-06T02:52:08.538Z,24.70
2019-03-06T02:57:27.324Z,26.33
2019-03-06T03:02:47.440Z,21.20
2019-03-06T03:08:06.173Z,21.43
2019-03-06T03:13:24.994Z,19.73
2019-03-06T03:18:43.601Z,23.33
2019-03-06T03:24:02.068Z,25.00
2019-03-06T03:29:20.643Z,22.83
2019-03-06T03:34:39.244Z,18.07
2019-03-06T03:39:57.737Z,25.57
2019-03-06T03:45:17.138Z,31.27
2019-03-06T03:50:35.678Z,24.30
2019-03-06T03:55:54.249Z,27.37
2019-03-06T04:01:13.290Z,24.90
2019-03-06T04:06:31.853Z,28.90
2019-03-06T04:11:50.390Z,25.73
2019-03-06T04:17:08.933Z,19.30
2019-03-06T04:22:27.832Z,23.03
2019-03-06T04:27:46.395Z,32.85
2019-03-06T04:33:05.003Z,19.33
2019-03-06T04:38:23.475Z,21.93
2019-03-06T04:43:43.508Z,20.37
2019-03-06T04:49:02.049Z,23.40
2019-03-06T04:54:20.590Z,21.20
2019-03-06T04:59:39.157Z,20.00
2019-03-06T05:04:57.747Z,23.77
2019-03-06T05:10:16.442Z,19.47
2019-03-06T05:15:35.067Z,24.10
2019-03-06T05:20:53.636Z,20.67
2019-03-06T05:26:12.105Z,19.33
2019-03-06T05:31:30.725Z,22.23
2019-03-06T05:37:17.606Z,19.13
2019-03-06T05:42:36.131Z,21.23
2019-03-06T05:47:54.952Z,18.93
2019-03-06T05:53:13.502Z,16.37
2019-03-06T05:58:31.976Z,22.30
2019-03-06T06:03:50.512Z,22.93
2019-03-06T06:09:09.131Z,20.83
2019-03-06T06:14:27.977Z,20.27
2019-03-06T06:19:46.661Z,19.57
2019-03-06T06:25:05.981Z,16.43
2019-03-06T06:30:24.724Z,18.03
2019-03-06T06:35:43.331Z,24.10
2019-03-06T06:41:01.863Z,22.17
2019-03-06T06:46:20.407Z,18.30
2019-03-06T06:52:10.640Z,17.37
2019-03-06T06:57:40.884Z,16.30
2019-03-06T07:03:29.106Z,17.73
2019-03-06T07:08:49.654Z,16.33
2019-03-06T07:14:09.900Z,15.93
2019-03-06T07:19:30.080Z,17.90
2019-03-06T07:24:52.931Z,15.90
2019-03-06T07:30:26.515Z,15.57
2019-03-06T07:36:00.270Z,15.53
2019-03-06T07:41:32.747Z,13.00
2019-03-06T07:46:53.114Z,12.15
2019-03-06T07:52:16.480Z,14.83
2019-03-06T07:57:43.821Z,14.53
2019-03-06T08:03:05.250Z,12.18
2019-03-06T08:08:23.751Z,12.43
2019-03-06T08:13:43.881Z,10.63
2019-03-06T08:19:07.081Z,12.20
2019-03-06T08:24:30.775Z,7.93
2019-03-06T08:29:49.428Z,6.57
2019-03-06T08:35:10.774Z,5.67
2019-03-06T08:40:29.246Z,5.83
2019-03-06T08:46:07.754Z,6.13
2019-03-06T08:51:28.011Z,4.63
2019-03-06T08:57:04.493Z,6.83
2019-03-06T09:02:29.418Z,10.03
2019-03-06T09:08:02.234Z,3.83
2019-03-06T09:13:28.491Z,4.80
2019-03-06T09:18:52.207Z,6.77
2019-03-06T09:24:15.461Z,6.80
2019-03-06T09:29:38.117Z,5.33
2019-03-06T09:35:16.161Z,6.43
2019-03-06T09:40:36.434Z,4.50
2019-03-06T09:46:05.233Z,6.50
2019-03-06T09:51:32.951Z,4.33
2019-03-06T09:56:53.213Z,6.30
2019-03-06T10:02:19.618Z,5.23
2019-03-06T10:07:39.894Z,7.03
2019-03-06T10:13:06.237Z,6.23
2019-03-06T10:18:30.041Z,3.10
2019-03-06T10:23:49.055Z,9.03
2019-03-06T10:29:08.277Z,11.13
2019-03-06T10:34:26.903Z,3.90
2019-03-06T10:39:45.755Z,5.50
2019-03-06T10:45:06.177Z,7.43
2019-03-06T10:50:28.254Z,3.80
2019-03-06T10:55:45.437Z,7.73
2019-03-06T11:01:04.941Z,6.33
2019-03-06T11:06:23.554Z,4.77
2019-03-06T11:11:42.173Z,7.67
2019-03-06T11:17:00.998Z,4.03
2019-03-06T11:22:19.787Z,6.60
2019-03-06T11:27:38.394Z,5.33
2019-03-06T11:32:57.217Z,8.40
2019-03-06T11:38:15.939Z,5.57
2019-03-06T11:43:34.556Z,5.83
2019-03-06T11:48:53.450Z,9.73
2019-03-06T11:54:12.241Z,4.57
2019-03-06T11:59:30.826Z,6.17
2019-03-06T12:04:49.452Z,4.43
2019-03-06T12:10:10.320Z,4.17
2019-03-06T12:15:29.544Z,2.20
2019-03-06T12:20:49.477Z,5.07
2019-03-06T12:26:08.658Z,6.63
2019-03-06T12:31:27.221Z,6.10
2019-03-06T12:36:45.863Z,2.47
2019-03-06T12:42:13.785Z,4.43
2019-03-06T12:47:25.122Z,4.40
2019-03-06T12:52:43.662Z,5.10
2019-03-06T12:58:02.376Z,5.00
2019-03-06T13:03:20.993Z,5.00
2019-03-06T13:08:49.571Z,3.87
2019-03-06T13:13:59.951Z,7.17
2019-03-06T13:19:18.637Z,7.67
2019-03-06T13:24:37.251Z,4.47
2019-03-06T13:29:55.788Z,5.47
2019-03-06T13:35:14.882Z,3.80
2019-03-06T13:40:33.525Z,1.87
2019-03-06T13:45:52.299Z,6.27
2019-03-06T13:51:10.911Z,4.17
2019-03-06T13:56:31.189Z,9.40
2019-03-06T14:01:49.732Z,2.60
2019-03-06T14:07:08.519Z,7.70
2019-03-06T14:12:27.150Z,3.37
2019-03-06T14:17:45.937Z,6.27
2019-03-06T14:23:04.654Z,2.93
2019-03-06T14:28:23.298Z,4.20
2019-03-06T14:33:41.907Z,6.60
2019-03-06T14:39:00.531Z,4.08
2019-03-06T14:44:19.170Z,8.23
2019-03-06T14:49:38.820Z,6.33
2019-03-06T14:54:57.447Z,4.80
2019-03-06T15:00:20.134Z,5.83
2019-03-06T15:05:46.876Z,11.43
2019-03-06T15:10:59.282Z,6.20
2019-03-06T15:16:19.507Z,6.77
2019-03-06T15:21:38.153Z,3.93
2019-03-06T15:26:56.854Z,7.07
2019-03-06T15:32:15.575Z,5.60
2019-03-06T15:37:34.530Z,8.03
2019-03-06T15:42:53.250Z,9.33
2019-03-06T15:48:11.901Z,8.47
2019-03-06T15:53:30.534Z,3.80
2019-03-06T15:58:51.419Z,8.70
2019-03-06T16:04:10.255Z,3.87
2019-03-06T16:09:28.915Z,6.03
2019-03-06T16:14:49.555Z,4.33
2019-03-06T16:20:15.080Z,5.90
2019-03-06T16:25:37.919Z,12.60
2019-03-06T16:30:54.374Z,12.50
2019-03-06T16:36:13.030Z,4.53
2019-03-06T16:41:32.029Z,7.00
2019-03-06T16:46:50.669Z,8.15
2019-03-06T16:52:09.386Z,7.33
2019-03-06T16:57:27.978Z,12.67
2019-03-06T17:02:46.885Z,6.63
2019-03-06T17:08:28.768Z,9.67
2019-03-06T17:13:36.998Z,8.57
2019-03-06T17:18:56.592Z,9.05
2019-03-06T17:24:16.660Z,5.10
2019-03-06T17:29:35.383Z,7.07
2019-03-06T17:34:54.055Z,6.73
2019-03-06T17:40:13.972Z,5.27
2019-03-06T17:45:33.063Z,5.97
2019-03-06T17:50:54.007Z,11.93
2019-03-06T17:56:13.725Z,7.23
2019-03-06T18:01:32.345Z,5.97
2019-03-06T18:06:51.243Z,10.57
2019-03-06T18:12:16.046Z,7.13
2019-03-06T18:17:35.517Z,6.00
2019-03-06T18:23:03.929Z,10.60
2019-03-06T18:28:22.622Z,10.43
2019-03-06T18:33:41.275Z,10.70
2019-03-06T18:39:00.196Z,10.17
2019-03-06T18:44:18.847Z,10.20
2019-03-06T18:49:37.465Z,13.23
2019-03-06T18:54:56.004Z,17.97
2019-03-06T19:00:33.485Z,12.43
2019-03-06T19:05:51.831Z,6.77
2019-03-06T19:11:16.890Z,16.90
2019-03-06T19:16:31.181Z,12.10
2019-03-06T19:21:49.821Z,12.73
2019-03-06T19:27:10.156Z,11.23
2019-03-06T19:32:28.792Z,11.47
2019-03-06T19:37:47.540Z,11.00
2019-03-06T19:43:06.182Z,10.30
2019-03-06T19:48:25.983Z,10.40
2019-03-06T19:53:44.840Z,10.77
2019-03-06T19:59:03.543Z,11.40
2019-03-06T20:04:22.400Z,14.17
2019-03-06T20:09:43.811Z,13.07
2019-03-06T20:15:02.482Z,7.77
2019-03-06T20:20:21.196Z,14.57
2019-03-06T20:25:39.834Z,11.10
2019-03-06T20:30:58.507Z,14.20
2019-03-06T20:36:17.195Z,9.63
2019-03-06T20:41:36.355Z,11.23
2019-03-06T20:46:55.069Z,10.07
2019-03-06T20:52:13.559Z,8.77
2019-03-06T20:57:32.145Z,8.20
2019-03-06T21:02:50.831Z,7.67
2019-03-06T21:08:09.477Z,11.75
2019-03-06T21:13:28.607Z,9.23
2019-03-06T21:18:47.289Z,11.73
2019-03-06T21:24:05.926Z,11.10
2019-03-06T21:29:25.918Z,9.87
2019-03-06T21:34:44.398Z,14.53
2019-03-06T21:40:03.044Z,8.43
2019-03-06T21:45:21.962Z,12.10
2019-03-06T21:50:40.656Z,15.53
2019-03-06T21:55:59.372Z,7.57
2019-03-06T22:01:19.604Z,11.90
2019-03-06T22:06:38.143Z,11.43
2019-03-06T22:11:56.707Z,14.80
2019-03-06T22:17:15.260Z,12.33
2019-03-06T22:22:35.516Z,13.43
2019-03-06T22:27:54.744Z,11.57
2019-03-06T22:33:13.467Z,11.20
2019-03-06T22:38:32.160Z,12.20
2019-03-06T22:43:52.513Z,12.93
2019-03-06T22:49:11.065Z,11.33
2019-03-06T22:54:29.979Z,14.27
2019-03-06T22:59:48.619Z,17.93
2019-03-06T23:05:08.330Z,11.70
2019-03-06T23:10:26.939Z,15.87
2019-03-06T23:15:45.582Z,11.20
2019-03-06T23:21:04.244Z,8.30
2019-03-06T23:26:22.941Z,8.07
2019-03-06T23:31:41.720Z,14.18
2019-03-06T23:37:00.343Z,18.00
2019-03-06T23:42:19.035Z,10.63
2019-03-06T23:47:37.652Z,11.65
2019-03-06T23:53:06.616Z,11.20
2019-03-06T23:58:25.112Z,14.57
